sensor_id;sensor_type;location;lat;lon;timestamp;temperature;humidity
702;DHT22;334;48.808;9.222;2023-02-28T00:00:28;3.60;1.00
702;DHT22;334;48.808;9.222;2023-02-28T00:01:33;3.60;1.00
702;DHT22;334;48.808;9.222;2023-02-28T00:02:37;3.50;1.00
702;DHT22;334;48.808;9.222;2023-02-28T00:03:39;3.10;1.00
702;DHT22;334;48.808;9.222;2023-02-28T00:04:41;3.60;1.00
702;DHT22;334;48.808;9.222;2023-02-28T00:05:43;3.60;1.00
702;DHT22;334;48.808;9.222;2023-02-28T00:06:45;3.60;1.00
702;DHT22;334;48.808;9.222;2023-02-28T00:07:48;3.60;1.00
702;DHT22;334;48.808;9.222;2023-02-28T00:08:50;3.70;1.00
702;DHT22;334;48.808;9.222;2023-02-28T00:09:52;3.60;1.00
702;DHT22;334;48.808;9.222;2023-02-28T00:10:55;3.30;1.00
702;DHT22;334;48.808;9.222;2023-02-28T00:11:56;3.60;1.00
702;DHT22;334;48.808;9.222;2023-02-28T00:13:02;3.60;1.00
702;DHT22;334;48.808;9.222;2023-02-28T00:14:05;3.60;1.00
702;DHT22;334;48.808;9.222;2023-02-28T00:15:08;3.60;1.00
702;DHT22;334;48.808;9.222;2023-02-28T00:16:14;3.50;1.00
702;DHT22;334;48.808;9.222;2023-02-28T00:17:16;3.60;1.00
702;DHT22;334;48.808;9.222;2023-02-28T00:18:22;3.70;1.00
702;DHT22;334;48.808;9.222;2023-02-28T00:19:23;3.70;1.00
702;DHT22;334;48.808;9.222;2023-02-28T00:20:25;3.70;1.00
702;DHT22;334;48.808;9.222;2023-02-28T00:21:36;3.70;1.00
702;DHT22;334;48.808;9.222;2023-02-28T00:22:39;3.50;1.00
702;DHT22;334;48.808;9.222;2023-02-28T00:23:41;3.50;1.00
702;DHT22;334;48.808;9.222;2023-02-28T00:24:43;3.70;1.00
702;DHT22;334;48.808;9.222;2023-02-28T00:25:45;3.50;1.00
702;DHT22;334;48.808;9.222;2023-02-28T00:26:47;3.30;1.00
702;DHT22;334;48.808;9.222;2023-02-28T00:27:50;3.30;1.00
702;DHT22;334;48.808;9.222;2023-02-28T00:28:52;3.70;1.00
702;DHT22;334;48.808;9.222;2023-02-28T00:29:54;3.50;1.00
702;DHT22;334;48.808;9.222;2023-02-28T00:30:56;3.50;1.00
702;DHT22;334;48.808;9.222;2023-02-28T00:32:00;3.40;1.00
702;DHT22;334;48.808;9.222;2023-02-28T00:33:02;3.60;1.00
702;DHT22;334;48.808;9.222;2023-02-28T00:34:04;3.50;1.00
702;DHT22;334;48.808;9.222;2023-02-28T00:35:06;3.50;1.00
702;DHT22;334;48.808;9.222;2023-02-28T00:36:11;3.50;1.00
702;DHT22;334;48.808;9.222;2023-02-28T00:37:13;3.50;1.00
702;DHT22;334;48.808;9.222;2023-02-28T00:38:16;3.50;1.00
702;DHT22;334;48.808;9.222;2023-02-28T00:39:18;3.50;1.00
702;DHT22;334;48.808;9.222;2023-02-28T00:40:20;3.50;1.00
702;DHT22;334;48.808;9.222;2023-02-28T00:41:23;3.50;1.00
702;DHT22;334;48.808;9.222;2023-02-28T00:42:34;3.30;1.00
702;DHT22;334;48.808;9.222;2023-02-28T00:43:39;3.50;1.00
702;DHT22;334;48.808;9.222;2023-02-28T00:44:41;3.70;1.00
702;DHT22;334;48.808;9.222;2023-02-28T00:45:43;3.50;1.00
702;DHT22;334;48.808;9.222;2023-02-28T00:46:45;3.60;1.00
702;DHT22;334;48.808;9.222;2023-02-28T00:47:47;3.60;1.00
702;DHT22;334;48.808;9.222;2023-02-28T00:48:51;3.40;1.00
702;DHT22;334;48.808;9.222;2023-02-28T00:49:53;3.40;1.00
702;DHT22;334;48.808;9.222;2023-02-28T00:50:57;3.50;1.00
702;DHT22;334;48.808;9.222;2023-02-28T00:51:59;3.40;1.00
702;DHT22;334;48.808;9.222;2023-02-28T00:53:01;3.30;1.00
702;DHT22;334;48.808;9.222;2023-02-28T00:54:03;3.40;1.00
702;DHT22;334;48.808;9.222;2023-02-28T00:55:05;3.40;1.00
702;DHT22;334;48.808;9.222;2023-02-28T00:56:08;3.60;1.00
702;DHT22;334;48.808;9.222;2023-02-28T00:57:10;3.40;1.00
702;DHT22;334;48.808;9.222;2023-02-28T00:58:12;3.40;1.00
702;DHT22;334;48.808;9.222;2023-02-28T00:59:16;3.40;1.00
702;DHT22;334;48.808;9.222;2023-02-28T01:00:18;3.40;1.00
702;DHT22;334;48.808;9.222;2023-02-28T01:01:20;3.60;1.00
702;DHT22;334;48.808;9.222;2023-02-28T01:02:22;3.40;1.00
702;DHT22;334;48.808;9.222;2023-02-28T01:03:25;3.60;1.00
702;DHT22;334;48.808;9.222;2023-02-28T01:04:26;3.40;1.00
702;DHT22;334;48.808;9.222;2023-02-28T01:05:28;3.30;1.00
702;DHT22;334;48.808;9.222;2023-02-28T01:06:31;3.60;1.00
702;DHT22;334;48.808;9.222;2023-02-28T01:07:33;3.40;1.00
702;DHT22;334;48.808;9.222;2023-02-28T01:08:34;3.30;1.00
702;DHT22;334;48.808;9.222;2023-02-28T01:09:36;3.40;1.00
702;DHT22;334;48.808;9.222;2023-02-28T01:10:38;3.30;1.00
702;DHT22;334;48.808;9.222;2023-02-28T01:11:41;3.10;1.00
702;DHT22;334;48.808;9.222;2023-02-28T01:12:45;3.40;1.00
702;DHT22;334;48.808;9.222;2023-02-28T01:13:47;3.30;1.00
702;DHT22;334;48.808;9.222;2023-02-28T01:14:50;3.30;1.00
702;DHT22;334;48.808;9.222;2023-02-28T01:15:54;3.40;1.00
702;DHT22;334;48.808;9.222;2023-02-28T01:16:56;3.40;1.00
702;DHT22;334;48.808;9.222;2023-02-28T01:18:01;3.20;1.00
702;DHT22;334;48.808;9.222;2023-02-28T01:19:03;3.30;1.00
702;DHT22;334;48.808;9.222;2023-02-28T01:20:06;3.30;1.00
702;DHT22;334;48.808;9.222;2023-02-28T01:21:11;3.20;1.00
702;DHT22;334;48.808;9.222;2023-02-28T01:22:14;3.20;1.00
702;DHT22;334;48.808;9.222;2023-02-28T01:23:16;3.20;1.00
702;DHT22;334;48.808;9.222;2023-02-28T01:24:18;3.20;1.00
702;DHT22;334;48.808;9.222;2023-02-28T01:25:22;3.20;1.00
702;DHT22;334;48.808;9.222;2023-02-28T01:26:24;3.20;1.00
702;DHT22;334;48.808;9.222;2023-02-28T01:27:26;3.40;1.00
702;DHT22;334;48.808;9.222;2023-02-28T01:28:30;3.30;1.00
702;DHT22;334;48.808;9.222;2023-02-28T01:29:32;3.20;1.00
702;DHT22;334;48.808;9.222;2023-02-28T01:30:34;3.20;1.00
702;DHT22;334;48.808;9.222;2023-02-28T01:31:36;3.20;1.00
702;DHT22;334;48.808;9.222;2023-02-28T01:32:38;3.20;1.00
702;DHT22;334;48.808;9.222;2023-02-28T01:33:40;3.20;1.00
702;DHT22;334;48.808;9.222;2023-02-28T01:34:42;3.30;1.00
702;DHT22;334;48.808;9.222;2023-02-28T01:35:44;3.30;1.00
702;DHT22;334;48.808;9.222;2023-02-28T01:36:46;3.00;1.00
702;DHT22;334;48.808;9.222;2023-02-28T01:37:48;3.10;1.00
702;DHT22;334;48.808;9.222;2023-02-28T01:38:50;3.30;1.00
702;DHT22;334;48.808;9.222;2023-02-28T01:39:52;3.10;1.00
702;DHT22;334;48.808;9.222;2023-02-28T01:40:55;3.20;1.00
702;DHT22;334;48.808;9.222;2023-02-28T01:41:57;3.10;1.00
702;DHT22;334;48.808;9.222;2023-02-28T01:42:59;3.20;1.00
702;DHT22;334;48.808;9.222;2023-02-28T01:45:28;3.10;1.00
702;DHT22;334;48.808;9.222;2023-02-28T01:46:32;3.30;1.00
702;DHT22;334;48.808;9.222;2023-02-28T01:47:39;3.00;1.00
702;DHT22;334;48.808;9.222;2023-02-28T01:48:59;3.10;1.00
702;DHT22;334;48.808;9.222;2023-02-28T01:50:05;3.00;1.00
702;DHT22;334;48.808;9.222;2023-02-28T01:51:12;3.10;1.00
702;DHT22;334;48.808;9.222;2023-02-28T01:52:15;2.60;1.00
702;DHT22;334;48.808;9.222;2023-02-28T01:53:26;2.90;1.00
702;DHT22;334;48.808;9.222;2023-02-28T01:54:31;3.10;1.00
702;DHT22;334;48.808;9.222;2023-02-28T01:55:39;3.10;1.00
702;DHT22;334;48.808;9.222;2023-02-28T01:56:47;3.10;1.00
702;DHT22;334;48.808;9.222;2023-02-28T01:57:52;3.20;1.00
702;DHT22;334;48.808;9.222;2023-02-28T01:58:57;2.90;1.00
702;DHT22;334;48.808;9.222;2023-02-28T02:00:02;3.00;1.00
702;DHT22;334;48.808;9.222;2023-02-28T02:01:11;3.00;1.00
702;DHT22;334;48.808;9.222;2023-02-28T02:02:23;3.20;1.00
702;DHT22;334;48.808;9.222;2023-02-28T02:03:27;3.10;1.00
702;DHT22;334;48.808;9.222;2023-02-28T02:04:38;3.10;1.00
702;DHT22;334;48.808;9.222;2023-02-28T02:05:41;3.10;1.00
702;DHT22;334;48.808;9.222;2023-02-28T02:06:49;3.00;1.00
702;DHT22;334;48.808;9.222;2023-02-28T02:08:09;2.90;1.00
702;DHT22;334;48.808;9.222;2023-02-28T02:09:12;3.20;1.00
702;DHT22;334;48.808;9.222;2023-02-28T02:11:23;3.20;1.00
702;DHT22;334;48.808;9.222;2023-02-28T02:15:25;3.10;1.00
702;DHT22;334;48.808;9.222;2023-02-28T02:18:12;3.00;1.00
702;DHT22;334;48.808;9.222;2023-02-28T02:19:29;3.10;1.00
702;DHT22;334;48.808;9.222;2023-02-28T02:37:47;2.80;1.00
702;DHT22;334;48.808;9.222;2023-02-28T02:39:02;2.90;1.00
702;DHT22;334;48.808;9.222;2023-02-28T02:40:21;2.90;1.00
702;DHT22;334;48.808;9.222;2023-02-28T02:43:23;3.00;1.00
702;DHT22;334;48.808;9.222;2023-02-28T02:44:26;2.90;1.00
702;DHT22;334;48.808;9.222;2023-02-28T02:46:43;3.00;1.00
702;DHT22;334;48.808;9.222;2023-02-28T02:47:45;3.00;1.00
702;DHT22;334;48.808;9.222;2023-02-28T02:48:48;2.70;1.00
702;DHT22;334;48.808;9.222;2023-02-28T02:49:52;2.90;1.00
702;DHT22;334;48.808;9.222;2023-02-28T02:50:59;3.00;1.00
702;DHT22;334;48.808;9.222;2023-02-28T02:52:08;3.00;1.00
702;DHT22;334;48.808;9.222;2023-02-28T02:53:13;3.00;1.00
702;DHT22;334;48.808;9.222;2023-02-28T02:54:21;3.00;1.00
702;DHT22;334;48.808;9.222;2023-02-28T02:55:24;2.90;1.00
702;DHT22;334;48.808;9.222;2023-02-28T02:56:30;3.10;1.00
702;DHT22;334;48.808;9.222;2023-02-28T02:57:43;3.20;1.00
702;DHT22;334;48.808;9.222;2023-02-28T02:58:49;3.00;1.00
702;DHT22;334;48.808;9.222;2023-02-28T02:59:55;2.90;1.00
702;DHT22;334;48.808;9.222;2023-02-28T03:01:00;3.10;1.00
702;DHT22;334;48.808;9.222;2023-02-28T03:02:06;2.90;1.00
702;DHT22;334;48.808;9.222;2023-02-28T03:03:09;2.90;1.00
702;DHT22;334;48.808;9.222;2023-02-28T03:04:19;2.80;1.00
702;DHT22;334;48.808;9.222;2023-02-28T03:06:55;3.10;1.00
702;DHT22;334;48.808;9.222;2023-02-28T03:07:57;2.70;1.00
702;DHT22;334;48.808;9.222;2023-02-28T03:09:00;2.90;1.00
702;DHT22;334;48.808;9.222;2023-02-28T03:10:25;3.00;1.00
702;DHT22;334;48.808;9.222;2023-02-28T03:11:25;3.20;1.00
702;DHT22;334;48.808;9.222;2023-02-28T03:12:39;3.00;1.00
702;DHT22;334;48.808;9.222;2023-02-28T03:13:51;3.00;1.00
702;DHT22;334;48.808;9.222;2023-02-28T03:15:08;3.10;1.00
702;DHT22;334;48.808;9.222;2023-02-28T03:23:23;3.20;1.00
702;DHT22;334;48.808;9.222;2023-02-28T03:25:46;3.20;1.00
702;DHT22;334;48.808;9.222;2023-02-28T03:26:58;3.10;1.00
702;DHT22;334;48.808;9.222;2023-02-28T03:28:10;3.10;1.00
702;DHT22;334;48.808;9.222;2023-02-28T03:29:19;3.10;1.00
702;DHT22;334;48.808;9.222;2023-02-28T03:30:48;3.20;1.00
702;DHT22;334;48.808;9.222;2023-02-28T03:32:04;3.10;1.00
702;DHT22;334;48.808;9.222;2023-02-28T03:35:12;3.30;1.00
702;DHT22;334;48.808;9.222;2023-02-28T03:36:18;3.10;1.00
702;DHT22;334;48.808;9.222;2023-02-28T03:37:24;3.20;1.00
702;DHT22;334;48.808;9.222;2023-02-28T03:39:49;3.10;1.00
702;DHT22;334;48.808;9.222;2023-02-28T03:41:00;3.10;1.00
702;DHT22;334;48.808;9.222;2023-02-28T03:42:08;3.00;1.00
702;DHT22;334;48.808;9.222;2023-02-28T03:43:17;3.30;1.00
702;DHT22;334;48.808;9.222;2023-02-28T03:44:28;3.30;1.00
702;DHT22;334;48.808;9.222;2023-02-28T03:45:37;3.30;1.00
702;DHT22;334;48.808;9.222;2023-02-28T03:47:03;3.30;1.00
702;DHT22;334;48.808;9.222;2023-02-28T03:49:32;3.20;1.00
702;DHT22;334;48.808;9.222;2023-02-28T03:50:39;3.10;1.00
702;DHT22;334;48.808;9.222;2023-02-28T03:51:43;3.40;1.00
702;DHT22;334;48.808;9.222;2023-02-28T03:54:23;3.30;1.00
702;DHT22;334;48.808;9.222;2023-02-28T03:55:32;3.30;1.00
702;DHT22;334;48.808;9.222;2023-02-28T03:56:48;3.10;1.00
702;DHT22;334;48.808;9.222;2023-02-28T03:58:03;3.30;1.00
702;DHT22;334;48.808;9.222;2023-02-28T03:59:12;3.20;1.00
702;DHT22;334;48.808;9.222;2023-02-28T04:00:33;3.20;1.00
702;DHT22;334;48.808;9.222;2023-02-28T04:01:41;3.30;1.00
702;DHT22;334;48.808;9.222;2023-02-28T04:02:47;3.20;1.00
702;DHT22;334;48.808;9.222;2023-02-28T04:03:54;3.40;1.00
702;DHT22;334;48.808;9.222;2023-02-28T04:04:56;3.20;1.00
702;DHT22;334;48.808;9.222;2023-02-28T04:05:58;3.20;1.00
702;DHT22;334;48.808;9.222;2023-02-28T04:07:06;3.20;1.00
702;DHT22;334;48.808;9.222;2023-02-28T04:08:09;3.20;1.00
702;DHT22;334;48.808;9.222;2023-02-28T04:09:13;3.20;1.00
702;DHT22;334;48.808;9.222;2023-02-28T04:10:15;3.20;1.00
702;DHT22;334;48.808;9.222;2023-02-28T04:11:36;3.20;1.00
702;DHT22;334;48.808;9.222;2023-02-28T04:12:39;3.40;1.00
702;DHT22;334;48.808;9.222;2023-02-28T04:13:41;3.20;1.00
702;DHT22;334;48.808;9.222;2023-02-28T04:14:42;3.20;1.00
702;DHT22;334;48.808;9.222;2023-02-28T04:15:44;3.20;1.00
702;DHT22;334;48.808;9.222;2023-02-28T04:16:46;3.30;1.00
702;DHT22;334;48.808;9.222;2023-02-28T04:17:48;3.20;1.00
702;DHT22;334;48.808;9.222;2023-02-28T04:18:52;3.30;1.00
702;DHT22;334;48.808;9.222;2023-02-28T04:19:54;3.30;1.00
702;DHT22;334;48.808;9.222;2023-02-28T04:21:00;3.20;1.00
702;DHT22;334;48.808;9.222;2023-02-28T04:22:03;3.10;1.00
702;DHT22;334;48.808;9.222;2023-02-28T04:23:12;3.30;1.00
702;DHT22;334;48.808;9.222;2023-02-28T04:24:22;3.20;1.00
702;DHT22;334;48.808;9.222;2023-02-28T04:25:24;3.30;1.00
702;DHT22;334;48.808;9.222;2023-02-28T04:26:34;3.20;1.00
702;DHT22;334;48.808;9.222;2023-02-28T04:27:37;3.30;1.00
702;DHT22;334;48.808;9.222;2023-02-28T04:28:38;3.30;1.00
702;DHT22;334;48.808;9.222;2023-02-28T04:29:40;3.50;1.00
702;DHT22;334;48.808;9.222;2023-02-28T04:30:46;3.20;1.00
702;DHT22;334;48.808;9.222;2023-02-28T04:31:48;3.30;1.00
702;DHT22;334;48.808;9.222;2023-02-28T04:32:50;3.30;1.00
702;DHT22;334;48.808;9.222;2023-02-28T04:33:52;3.50;1.00
702;DHT22;334;48.808;9.222;2023-02-28T04:34:54;3.30;1.00
702;DHT22;334;48.808;9.222;2023-02-28T04:36:05;3.50;1.00
702;DHT22;334;48.808;9.222;2023-02-28T04:37:09;3.30;1.00
702;DHT22;334;48.808;9.222;2023-02-28T04:38:14;3.30;1.00
702;DHT22;334;48.808;9.222;2023-02-28T04:39:17;3.30;1.00
702;DHT22;334;48.808;9.222;2023-02-28T04:40:20;3.40;1.00
702;DHT22;334;48.808;9.222;2023-02-28T04:41:22;3.50;1.00
702;DHT22;334;48.808;9.222;2023-02-28T04:42:24;3.40;1.00
702;DHT22;334;48.808;9.222;2023-02-28T04:43:29;3.30;1.00
702;DHT22;334;48.808;9.222;2023-02-28T04:44:31;3.40;1.00
702;DHT22;334;48.808;9.222;2023-02-28T04:45:34;3.50;1.00
702;DHT22;334;48.808;9.222;2023-02-28T04:46:38;3.40;1.00
702;DHT22;334;48.808;9.222;2023-02-28T04:47:39;3.50;1.00
702;DHT22;334;48.808;9.222;2023-02-28T04:48:41;3.40;1.00
702;DHT22;334;48.808;9.222;2023-02-28T04:49:43;3.30;1.00
702;DHT22;334;48.808;9.222;2023-02-28T04:50:45;3.30;1.00
702;DHT22;334;48.808;9.222;2023-02-28T04:51:47;3.30;1.00
702;DHT22;334;48.808;9.222;2023-02-28T04:52:51;3.60;1.00
702;DHT22;334;48.808;9.222;2023-02-28T04:53:54;3.30;1.00
702;DHT22;334;48.808;9.222;2023-02-28T04:54:56;3.40;1.00
702;DHT22;334;48.808;9.222;2023-02-28T04:55:58;3.40;1.00
702;DHT22;334;48.808;9.222;2023-02-28T04:57:00;3.50;1.00
702;DHT22;334;48.808;9.222;2023-02-28T04:58:03;3.60;1.00
702;DHT22;334;48.808;9.222;2023-02-28T04:59:04;3.40;1.00
702;DHT22;334;48.808;9.222;2023-02-28T05:00:07;3.30;1.00
702;DHT22;334;48.808;9.222;2023-02-28T05:02:17;3.60;1.00
702;DHT22;334;48.808;9.222;2023-02-28T05:03:20;3.60;1.00
702;DHT22;334;48.808;9.222;2023-02-28T05:04:23;3.40;1.00
702;DHT22;334;48.808;9.222;2023-02-28T05:05:25;3.50;1.00
702;DHT22;334;48.808;9.222;2023-02-28T05:06:28;3.60;1.00
702;DHT22;334;48.808;9.222;2023-02-28T05:07:32;3.50;1.00
702;DHT22;334;48.808;9.222;2023-02-28T05:08:34;3.60;1.00
702;DHT22;334;48.808;9.222;2023-02-28T05:09:35;3.40;1.00
702;DHT22;334;48.808;9.222;2023-02-28T05:10:37;3.40;1.00
702;DHT22;334;48.808;9.222;2023-02-28T05:11:40;3.40;1.00
702;DHT22;334;48.808;9.222;2023-02-28T05:12:42;3.60;1.00
702;DHT22;334;48.808;9.222;2023-02-28T05:13:44;3.50;1.00
702;DHT22;334;48.808;9.222;2023-02-28T05:14:46;3.60;1.00
702;DHT22;334;48.808;9.222;2023-02-28T05:15:48;3.60;1.00
702;DHT22;334;48.808;9.222;2023-02-28T05:16:51;3.60;1.00
702;DHT22;334;48.808;9.222;2023-02-28T05:17:53;3.10;1.00
702;DHT22;334;48.808;9.222;2023-02-28T05:18:55;3.50;1.00
702;DHT22;334;48.808;9.222;2023-02-28T05:19:57;3.60;1.00
702;DHT22;334;48.808;9.222;2023-02-28T05:22:25;3.50;1.00
702;DHT22;334;48.808;9.222;2023-02-28T05:23:27;3.60;1.00
702;DHT22;334;48.808;9.222;2023-02-28T05:24:29;3.10;1.00
702;DHT22;334;48.808;9.222;2023-02-28T05:25:32;3.10;1.00
702;DHT22;334;48.808;9.222;2023-02-28T05:26:36;3.50;1.00
702;DHT22;334;48.808;9.222;2023-02-28T05:27:40;3.20;1.00
702;DHT22;334;48.808;9.222;2023-02-28T05:28:42;3.50;1.00
702;DHT22;334;48.808;9.222;2023-02-28T05:29:44;3.50;1.00
702;DHT22;334;48.808;9.222;2023-02-28T05:30:47;3.60;1.00
702;DHT22;334;48.808;9.222;2023-02-28T05:31:49;3.50;1.00
702;DHT22;334;48.808;9.222;2023-02-28T05:32:52;3.50;1.00
702;DHT22;334;48.808;9.222;2023-02-28T05:33:55;3.60;1.00
702;DHT22;334;48.808;9.222;2023-02-28T05:34:58;3.60;1.00
702;DHT22;334;48.808;9.222;2023-02-28T05:36:02;3.60;1.00
702;DHT22;334;48.808;9.222;2023-02-28T05:37:06;3.50;1.00
702;DHT22;334;48.808;9.222;2023-02-28T05:38:12;3.60;1.00
702;DHT22;334;48.808;9.222;2023-02-28T05:39:14;3.10;1.00
702;DHT22;334;48.808;9.222;2023-02-28T05:40:16;3.60;1.00
702;DHT22;334;48.808;9.222;2023-02-28T05:41:19;3.50;1.00
702;DHT22;334;48.808;9.222;2023-02-28T05:42:22;3.50;1.00
702;DHT22;334;48.808;9.222;2023-02-28T05:43:24;3.60;1.00
702;DHT22;334;48.808;9.222;2023-02-28T05:44:26;3.70;1.00
702;DHT22;334;48.808;9.222;2023-02-28T05:45:28;3.70;1.00
702;DHT22;334;48.808;9.222;2023-02-28T05:46:30;3.70;1.00
702;DHT22;334;48.808;9.222;2023-02-28T05:47:33;3.50;1.00
702;DHT22;334;48.808;9.222;2023-02-28T05:48:36;3.50;1.00
702;DHT22;334;48.808;9.222;2023-02-28T05:49:38;3.60;1.00
702;DHT22;334;48.808;9.222;2023-02-28T05:50:40;3.70;1.00
702;DHT22;334;48.808;9.222;2023-02-28T05:51:44;3.50;1.00
702;DHT22;334;48.808;9.222;2023-02-28T05:52:52;3.50;1.00
702;DHT22;334;48.808;9.222;2023-02-28T05:53:54;3.80;1.00
702;DHT22;334;48.808;9.222;2023-02-28T05:54:56;3.50;1.00
702;DHT22;334;48.808;9.222;2023-02-28T05:55:58;3.40;1.00
702;DHT22;334;48.808;9.222;2023-02-28T05:57:01;3.80;1.00
702;DHT22;334;48.808;9.222;2023-02-28T05:58:06;3.60;1.00
702;DHT22;334;48.808;9.222;2023-02-28T05:59:08;3.50;1.00
702;DHT22;334;48.808;9.222;2023-02-28T06:00:10;3.70;1.00
702;DHT22;334;48.808;9.222;2023-02-28T06:02:33;3.70;1.00
702;DHT22;334;48.808;9.222;2023-02-28T06:03:36;3.60;1.00
702;DHT22;334;48.808;9.222;2023-02-28T06:04:40;3.80;1.00
702;DHT22;334;48.808;9.222;2023-02-28T06:05:43;3.60;1.00
702;DHT22;334;48.808;9.222;2023-02-28T06:06:46;3.60;1.00
702;DHT22;334;48.808;9.222;2023-02-28T06:07:49;3.60;1.00
702;DHT22;334;48.808;9.222;2023-02-28T06:08:51;3.60;1.00
702;DHT22;334;48.808;9.222;2023-02-28T06:09:53;3.80;1.00
702;DHT22;334;48.808;9.222;2023-02-28T06:10:55;3.60;1.00
702;DHT22;334;48.808;9.222;2023-02-28T06:12:01;3.70;1.00
702;DHT22;334;48.808;9.222;2023-02-28T06:13:05;3.70;1.00
702;DHT22;334;48.808;9.222;2023-02-28T06:14:14;3.70;1.00
702;DHT22;334;48.808;9.222;2023-02-28T06:15:16;3.70;1.00
702;DHT22;334;48.808;9.222;2023-02-28T06:16:18;3.90;1.00
702;DHT22;334;48.808;9.222;2023-02-28T06:17:20;3.90;1.00
702;DHT22;334;48.808;9.222;2023-02-28T06:18:24;3.80;1.00
702;DHT22;334;48.808;9.222;2023-02-28T06:19:27;3.50;1.00
702;DHT22;334;48.808;9.222;2023-02-28T06:20:28;3.80;1.00
702;DHT22;334;48.808;9.222;2023-02-28T06:21:31;3.90;1.00
702;DHT22;334;48.808;9.222;2023-02-28T06:22:50;3.80;1.00
702;DHT22;334;48.808;9.222;2023-02-28T06:23:53;3.80;1.00
702;DHT22;334;48.808;9.222;2023-02-28T06:24:56;3.70;1.00
702;DHT22;334;48.808;9.222;2023-02-28T06:25:58;3.50;1.00
702;DHT22;334;48.808;9.222;2023-02-28T06:27:00;3.80;1.00
702;DHT22;334;48.808;9.222;2023-02-28T06:28:07;3.80;1.00
702;DHT22;334;48.808;9.222;2023-02-28T06:29:09;3.80;1.00
702;DHT22;334;48.808;9.222;2023-02-28T06:30:11;3.80;1.00
702;DHT22;334;48.808;9.222;2023-02-28T06:31:16;3.70;1.00
702;DHT22;334;48.808;9.222;2023-02-28T06:32:18;3.80;1.00
702;DHT22;334;48.808;9.222;2023-02-28T06:33:20;3.70;1.00
702;DHT22;334;48.808;9.222;2023-02-28T06:34:22;3.80;1.00
702;DHT22;334;48.808;9.222;2023-02-28T06:35:24;3.50;1.00
702;DHT22;334;48.808;9.222;2023-02-28T06:36:26;3.80;1.00
702;DHT22;334;48.808;9.222;2023-02-28T06:37:32;3.60;1.00
702;DHT22;334;48.808;9.222;2023-02-28T06:38:34;3.80;1.00
702;DHT22;334;48.808;9.222;2023-02-28T06:39:36;3.80;1.00
702;DHT22;334;48.808;9.222;2023-02-28T06:40:40;3.80;1.00
702;DHT22;334;48.808;9.222;2023-02-28T06:41:42;3.80;1.00
702;DHT22;334;48.808;9.222;2023-02-28T06:42:56;3.80;1.00
702;DHT22;334;48.808;9.222;2023-02-28T06:43:57;3.80;1.00
702;DHT22;334;48.808;9.222;2023-02-28T06:44:59;3.70;1.00
702;DHT22;334;48.808;9.222;2023-02-28T06:46:04;4.00;1.00
702;DHT22;334;48.808;9.222;2023-02-28T06:47:06;3.30;1.00
702;DHT22;334;48.808;9.222;2023-02-28T06:48:08;3.70;1.00
702;DHT22;334;48.808;9.222;2023-02-28T06:49:11;3.80;1.00
702;DHT22;334;48.808;9.222;2023-02-28T06:50:13;3.70;1.00
702;DHT22;334;48.808;9.222;2023-02-28T06:51:19;3.90;1.00
702;DHT22;334;48.808;9.222;2023-02-28T06:52:23;3.70;1.00
702;DHT22;334;48.808;9.222;2023-02-28T06:53:25;3.90;1.00
702;DHT22;334;48.808;9.222;2023-02-28T06:54:28;3.90;1.00
702;DHT22;334;48.808;9.222;2023-02-28T06:55:30;3.80;1.00
702;DHT22;334;48.808;9.222;2023-02-28T06:56:33;3.80;1.00
702;DHT22;334;48.808;9.222;2023-02-28T06:57:35;3.90;1.00
702;DHT22;334;48.808;9.222;2023-02-28T06:58:38;3.80;1.00
702;DHT22;334;48.808;9.222;2023-02-28T06:59:40;3.50;1.00
702;DHT22;334;48.808;9.222;2023-02-28T07:00:43;3.80;1.00
702;DHT22;334;48.808;9.222;2023-02-28T07:01:45;3.80;1.00
702;DHT22;334;48.808;9.222;2023-02-28T07:02:50;3.90;1.00
702;DHT22;334;48.808;9.222;2023-02-28T07:03:52;3.90;1.00
702;DHT22;334;48.808;9.222;2023-02-28T07:04:57;3.80;1.00
702;DHT22;334;48.808;9.222;2023-02-28T07:05:59;4.10;1.00
702;DHT22;334;48.808;9.222;2023-02-28T07:07:01;3.90;1.00
702;DHT22;334;48.808;9.222;2023-02-28T07:08:04;4.00;1.00
702;DHT22;334;48.808;9.222;2023-02-28T07:09:08;4.00;1.00
702;DHT22;334;48.808;9.222;2023-02-28T07:10:17;3.90;1.00
702;DHT22;334;48.808;9.222;2023-02-28T07:11:22;4.00;1.00
702;DHT22;334;48.808;9.222;2023-02-28T07:12:27;3.80;1.00
702;DHT22;334;48.808;9.222;2023-02-28T07:13:30;3.90;1.00
702;DHT22;334;48.808;9.222;2023-02-28T07:14:32;4.00;1.00
702;DHT22;334;48.808;9.222;2023-02-28T07:15:35;3.90;1.00
702;DHT22;334;48.808;9.222;2023-02-28T07:16:42;3.90;1.00
702;DHT22;334;48.808;9.222;2023-02-28T07:17:46;3.90;1.00
702;DHT22;334;48.808;9.222;2023-02-28T07:18:48;3.90;1.00
702;DHT22;334;48.808;9.222;2023-02-28T07:19:50;4.00;1.00
702;DHT22;334;48.808;9.222;2023-02-28T07:20:53;3.70;1.00
702;DHT22;334;48.808;9.222;2023-02-28T07:21:55;4.00;1.00
702;DHT22;334;48.808;9.222;2023-02-28T07:22:57;4.00;1.00
702;DHT22;334;48.808;9.222;2023-02-28T07:24:01;4.00;1.00
702;DHT22;334;48.808;9.222;2023-02-28T07:25:03;4.00;1.00
702;DHT22;334;48.808;9.222;2023-02-28T07:26:11;3.70;1.00
702;DHT22;334;48.808;9.222;2023-02-28T07:27:19;4.10;1.00
702;DHT22;334;48.808;9.222;2023-02-28T07:28:27;4.10;1.00
702;DHT22;334;48.808;9.222;2023-02-28T07:29:29;4.10;1.00
702;DHT22;334;48.808;9.222;2023-02-28T07:30:31;4.10;1.00
702;DHT22;334;48.808;9.222;2023-02-28T07:31:33;4.10;1.00
702;DHT22;334;48.808;9.222;2023-02-28T07:32:35;4.10;1.00
702;DHT22;334;48.808;9.222;2023-02-28T07:33:39;3.80;1.00
702;DHT22;334;48.808;9.222;2023-02-28T07:34:41;3.60;1.00
702;DHT22;334;48.808;9.222;2023-02-28T07:35:44;4.10;1.00
702;DHT22;334;48.808;9.222;2023-02-28T07:36:46;4.10;1.00
702;DHT22;334;48.808;9.222;2023-02-28T07:37:48;4.10;1.00
702;DHT22;334;48.808;9.222;2023-02-28T07:38:50;4.10;1.00
702;DHT22;334;48.808;9.222;2023-02-28T07:39:52;4.10;1.00
702;DHT22;334;48.808;9.222;2023-02-28T07:40:54;4.10;1.00
702;DHT22;334;48.808;9.222;2023-02-28T07:41:56;4.20;1.00
702;DHT22;334;48.808;9.222;2023-02-28T07:42:59;4.10;1.00
702;DHT22;334;48.808;9.222;2023-02-28T07:44:02;4.10;1.00
702;DHT22;334;48.808;9.222;2023-02-28T07:45:07;4.00;1.00
702;DHT22;334;48.808;9.222;2023-02-28T07:46:12;4.10;1.00
702;DHT22;334;48.808;9.222;2023-02-28T07:47:17;4.10;1.00
702;DHT22;334;48.808;9.222;2023-02-28T07:48:19;4.10;1.00
702;DHT22;334;48.808;9.222;2023-02-28T07:49:21;4.10;1.00
702;DHT22;334;48.808;9.222;2023-02-28T07:50:24;4.10;1.00
702;DHT22;334;48.808;9.222;2023-02-28T07:51:27;4.10;1.00
702;DHT22;334;48.808;9.222;2023-02-28T07:52:30;4.10;1.00
702;DHT22;334;48.808;9.222;2023-02-28T07:53:33;4.10;1.00
702;DHT22;334;48.808;9.222;2023-02-28T07:54:35;4.10;1.00
702;DHT22;334;48.808;9.222;2023-02-28T07:55:37;4.10;1.00
702;DHT22;334;48.808;9.222;2023-02-28T07:56:41;4.20;1.00
702;DHT22;334;48.808;9.222;2023-02-28T07:57:43;4.10;1.00
702;DHT22;334;48.808;9.222;2023-02-28T07:58:45;4.20;1.00
702;DHT22;334;48.808;9.222;2023-02-28T07:59:47;4.20;1.00
702;DHT22;334;48.808;9.222;2023-02-28T08:00:50;4.20;1.00
702;DHT22;334;48.808;9.222;2023-02-28T08:01:51;4.20;1.00
702;DHT22;334;48.808;9.222;2023-02-28T08:02:55;4.20;1.00
702;DHT22;334;48.808;9.222;2023-02-28T08:03:57;4.20;1.00
702;DHT22;334;48.808;9.222;2023-02-28T08:04:59;4.20;1.00
702;DHT22;334;48.808;9.222;2023-02-28T08:06:03;4.20;1.00
702;DHT22;334;48.808;9.222;2023-02-28T08:07:05;4.20;1.00
702;DHT22;334;48.808;9.222;2023-02-28T08:08:08;4.20;1.00
702;DHT22;334;48.808;9.222;2023-02-28T08:09:11;4.20;1.00
702;DHT22;334;48.808;9.222;2023-02-28T08:10:13;4.20;1.00
702;DHT22;334;48.808;9.222;2023-02-28T08:11:17;4.30;1.00
702;DHT22;334;48.808;9.222;2023-02-28T08:12:19;4.30;1.00
702;DHT22;334;48.808;9.222;2023-02-28T08:13:21;4.30;1.00
702;DHT22;334;48.808;9.222;2023-02-28T08:14:23;4.20;1.00
702;DHT22;334;48.808;9.222;2023-02-28T08:15:30;4.30;1.00